Hythe, United Kingdom
Current Conditions -  °F | °C
As of 4:20 PM on Sunday 25 Jan 2015 (Local Time) from EGMD Reporting Station
Broken Clouds Broken Clouds  
Wind Chill:   Ceiling: 3200
Heat Index:   Visibility: 6mi
Dew Point:   Wind: 13mph
Humidity: 76%   Direction: 240°WSW
Pressure: 30.39"   Gusts: NA
Location:  51.07°N, 1.08°E
Report Text: EGMD 251620Z 24011KT 9999 BKN032 08/04 Q1029
Loading
Personal Weather Stations






























Interactive Weather Map New forecast layout! Learn more

10-Day Weather Forecast

Advertisements
Track Severe Weather on mobile